Aérodrome :
LOGIN :

S'inscrire | Disclaimer

   EN    FR    IT 

 










Légende :    VFR   VFR Marginal   IFR   IFR Intensif   IFR Très Intensif
Visi : 
Plafond : 
>= 8 km
>= 3000ft
5 à 8 km
1000 à 3000 ft
1500m à 5 km
500 à 1000 ft
800 à 1500m
200 à 500 ft
< 800m
< 200 ft
Symboles :   Orages  Brouillard  Fortes neiges  Fortes précipitations  Vent > 20 kt
SIGMETs :   Divers  Orages  Givrage  Turbulence  Onde Orograph.  Cendres Volcan.






- Altitude de l'aérodrome : 24 ft
- Code IATA : SGD


EKSB - Sonderborg

DERNIER METAR :
  • 230150Z AUTO 19004KT 9999 FEW035/// BKN063/// BKN083/// 17/12 Q1015

METARs EXPIRÉS :
  • 230120Z AUTO 20005KT 160V220 9999 BKN035/// BKN071/// BKN087/// 16/13 Q1015
  • 230050Z AUTO 20005KT 9999 OVC087/// 16/13 Q1015
  • 230020Z AUTO 20006KT 9999 OVC080/// 16/13 Q1015
  • 222350Z AUTO 20006KT 9999 OVC080/// 16/13 Q1015
  • 222320Z AUTO 22005KT 9999 BKN043/// BKN080/// 15/13 Q1016
  • 222250Z AUTO 21005KT 9999 SCT046/// BKN080/// 15/13 Q1016
  • 222220Z AUTO 21005KT 9999 SCT079/// 14/13 Q1016
  • 222150Z AUTO 23004KT 9999 FEW076/// 15/12 Q1016
  • 222120Z AUTO 21004KT 9999 NCD 14/12 Q1016
  • 222050Z AUTO 23003KT 9999 NCD 15/12 Q1016

Prévision TAF périmée.



MET'MAP, la Météo Aéronautique d'un coup d'oeil ! - Copyright ORBIFLY Décembre 2007 - Disclaimer

ORBIFLY MET'MAP TEAM :

Programmation & Développement : Alexandra Zaïnal
Sur une idée originale de : Baudouin d'Aumeries
Soutien technique & logistique : Manuel Goepfert
Assistance : Marc-Olivier Méhu




SOURCES & CREDITS :

   NOAA